createdAt,value
2023-10-20T00:00:07.755Z,20.18
2023-10-20T00:01:12.746Z,20.06
2023-10-20T00:02:20.612Z,20.00
2023-10-20T00:03:25.674Z,20.08
2023-10-20T00:04:33.587Z,18.97
2023-10-20T00:05:38.903Z,19.95
2023-10-20T00:06:49.219Z,20.04
2023-10-20T00:07:55.848Z,20.10
2023-10-20T00:09:05.341Z,20.11
2023-10-20T00:10:13.107Z,20.14
2023-10-20T00:11:20.856Z,20.17
2023-10-20T00:12:25.967Z,20.21
2023-10-20T00:13:33.625Z,20.17
2023-10-20T00:14:38.636Z,20.07
2023-10-20T00:15:49.930Z,20.11
2023-10-20T00:16:54.987Z,20.08
2023-10-20T00:18:03.170Z,20.12
2023-10-20T00:19:08.801Z,20.16
2023-10-20T00:20:16.890Z,20.21
2023-10-20T00:21:22.175Z,20.21
2023-10-20T00:22:32.484Z,20.09
2023-10-20T00:23:37.486Z,20.20
2023-10-20T00:24:47.144Z,20.19
2023-10-20T00:25:52.145Z,20.18
2023-10-20T00:26:59.786Z,20.26
2023-10-20T00:28:05.159Z,20.30
2023-10-20T00:29:12.837Z,20.29
2023-10-20T00:30:17.863Z,19.50
2023-10-20T00:31:25.537Z,20.30
2023-10-20T00:32:32.744Z,20.29
2023-10-20T00:33:40.401Z,20.22
2023-10-20T00:34:45.649Z,19.97
2023-10-20T00:35:53.621Z,20.13
2023-10-20T00:36:58.561Z,20.26
2023-10-20T00:38:09.186Z,20.16
2023-10-20T00:39:14.653Z,20.19
2023-10-20T00:40:22.432Z,20.17
2023-10-20T00:41:27.470Z,20.27
2023-10-20T00:42:35.327Z,20.26
2023-10-20T00:43:41.159Z,20.23
2023-10-20T00:44:48.803Z,20.28
2023-10-20T00:45:54.044Z,20.32
2023-10-20T00:47:02.791Z,20.41
2023-10-20T00:48:08.513Z,20.37
2023-10-20T00:49:17.733Z,20.27
2023-10-20T00:50:22.925Z,20.38
2023-10-20T00:51:30.653Z,20.38
2023-10-20T00:52:37.844Z,20.33
2023-10-20T00:53:49.519Z,20.38
2023-10-20T00:54:56.812Z,20.34
2023-10-20T00:56:08.379Z,20.35
2023-10-20T00:57:14.680Z,20.12
2023-10-20T00:58:23.056Z,20.21
2023-10-20T00:59:29.436Z,20.25
2023-10-20T01:00:37.147Z,20.31
2023-10-20T01:01:42.135Z,20.24
2023-10-20T01:02:50.016Z,20.18
2023-10-20T01:03:55.233Z,20.13
2023-10-20T01:05:03.527Z,20.18
2023-10-20T01:06:08.554Z,20.14
2023-10-20T01:07:16.932Z,20.10
2023-10-20T01:08:22.009Z,20.18
2023-10-20T01:09:33.557Z,19.94
2023-10-20T01:10:38.615Z,20.17
2023-10-20T01:11:47.645Z,20.26
2023-10-20T01:12:52.834Z,20.28
2023-10-20T01:14:01.737Z,20.25
2023-10-20T01:15:08.396Z,19.65
2023-10-20T01:16:16.239Z,20.26
2023-10-20T01:17:21.614Z,20.26
2023-10-20T01:18:29.458Z,20.27
2023-10-20T01:19:35.366Z,20.20
2023-10-20T01:20:43.685Z,20.30
2023-10-20T01:21:48.840Z,20.28
2023-10-20T01:22:56.630Z,20.31
2023-10-20T01:24:05.530Z,20.29
2023-10-20T01:25:13.757Z,20.36
2023-10-20T01:26:19.624Z,20.25
2023-10-20T01:27:27.367Z,20.27
2023-10-20T01:28:32.400Z,20.37
2023-10-20T01:29:40.328Z,20.39
2023-10-20T01:30:45.296Z,20.35
2023-10-20T01:31:53.653Z,20.34
2023-10-20T01:32:58.761Z,20.30
2023-10-20T01:34:07.059Z,20.26
2023-10-20T01:35:12.465Z,20.31
2023-10-20T01:36:20.538Z,20.32
2023-10-20T01:37:25.573Z,20.29
2023-10-20T01:38:33.558Z,20.31
2023-10-20T01:39:41.412Z,20.20
2023-10-20T01:40:50.134Z,20.04
2023-10-20T01:41:55.114Z,20.15
2023-10-20T01:43:02.884Z,19.99
2023-10-20T01:44:07.896Z,20.05
2023-10-20T01:45:15.551Z,20.03
2023-10-20T01:46:22.216Z,19.97
2023-10-20T01:47:30.146Z,20.06
2023-10-20T01:48:35.256Z,20.05
2023-10-20T01:49:42.897Z,20.11
2023-10-20T01:50:47.862Z,20.13
2023-10-20T01:51:55.595Z,20.14
2023-10-20T01:53:01.738Z,20.05
2023-10-20T01:54:09.501Z,20.13
2023-10-20T01:55:17.342Z,20.12
2023-10-20T01:56:25.910Z,20.15
2023-10-20T01:57:31.099Z,20.11
2023-10-20T01:58:38.819Z,20.12
2023-10-20T01:59:43.982Z,20.17
2023-10-20T02:00:54.537Z,20.07
2023-10-20T02:02:01.600Z,20.28
2023-10-20T02:03:10.395Z,20.31
2023-10-20T02:04:15.529Z,20.19
2023-10-20T02:05:23.914Z,20.25
2023-10-20T02:06:29.080Z,20.29
2023-10-20T02:07:36.753Z,20.22
2023-10-20T02:08:42.011Z,20.18
2023-10-20T02:09:49.882Z,20.23
2023-10-20T02:10:57.885Z,20.16
2023-10-20T02:12:05.965Z,20.13
2023-10-20T02:13:12.210Z,20.18
2023-10-20T02:14:19.909Z,20.31
2023-10-20T02:15:24.957Z,20.27
2023-10-20T02:16:32.679Z,20.27
2023-10-20T02:17:38.270Z,20.33
2023-10-20T02:18:46.867Z,20.18
2023-10-20T02:19:51.896Z,20.17
2023-10-20T02:21:05.398Z,20.32
2023-10-20T02:22:10.396Z,20.25
2023-10-20T02:23:20.182Z,20.30
2023-10-20T02:24:25.517Z,20.24
2023-10-20T02:25:33.163Z,20.28
2023-10-20T02:26:41.114Z,20.16
2023-10-20T02:27:49.035Z,20.27
2023-10-20T02:28:54.066Z,20.13
2023-10-20T02:30:02.077Z,20.27
2023-10-20T02:31:15.442Z,20.28
2023-10-20T02:32:23.136Z,20.25
2023-10-20T02:33:28.507Z,20.27
2023-10-20T02:34:35.127Z,20.05
2023-10-20T02:35:46.357Z,20.29
2023-10-20T02:36:51.666Z,20.21
2023-10-20T02:37:59.426Z,20.20
2023-10-20T02:39:04.565Z,20.18
2023-10-20T02:40:13.934Z,20.22
2023-10-20T02:41:18.896Z,20.38
2023-10-20T02:42:30.179Z,20.44
2023-10-20T02:43:35.227Z,20.49
2023-10-20T02:44:43.772Z,20.48
2023-10-20T02:45:51.965Z,20.54
2023-10-20T02:46:59.688Z,20.51
2023-10-20T02:48:05.715Z,20.50
2023-10-20T02:49:13.366Z,20.56
2023-10-20T02:50:19.441Z,20.54
2023-10-20T02:51:28.360Z,20.39
2023-10-20T02:52:33.353Z,20.41
2023-10-20T02:53:41.381Z,20.50
2023-10-20T02:54:46.415Z,20.50
2023-10-20T02:55:54.045Z,20.38
2023-10-20T02:56:59.403Z,20.44
2023-10-20T02:58:07.175Z,20.36
2023-10-20T02:59:14.914Z,20.47
2023-10-20T03:00:20.744Z,20.51
2023-10-20T03:01:28.521Z,20.54
2023-10-20T03:02:33.686Z,20.45
2023-10-20T03:03:41.977Z,20.60
2023-10-20T03:04:47.381Z,20.62
2023-10-20T03:05:55.105Z,20.76
2023-10-20T03:07:00.063Z,20.77
2023-10-20T03:08:08.029Z,20.77
2023-10-20T03:09:15.928Z,20.46
2023-10-20T03:10:23.698Z,20.71
2023-10-20T03:11:28.760Z,20.63
2023-10-20T03:12:37.150Z,20.66
2023-10-20T03:13:44.942Z,20.58
2023-10-20T03:14:53.028Z,20.73
2023-10-20T03:15:58.601Z,20.78
2023-10-20T03:17:06.419Z,20.77
2023-10-20T03:18:15.415Z,20.80
2023-10-20T03:19:24.153Z,20.90
2023-10-20T03:20:30.427Z,20.93
2023-10-20T03:21:38.106Z,20.93
2023-10-20T03:22:43.339Z,20.96
2023-10-20T03:23:50.942Z,20.90
2023-10-20T03:24:56.975Z,20.79
2023-10-20T03:26:04.865Z,20.91
2023-10-20T03:27:10.083Z,20.97
2023-10-20T03:28:15.169Z,20.93
2023-10-20T03:29:25.597Z,20.57
2023-10-20T03:30:31.049Z,20.95
2023-10-20T03:31:39.761Z,20.94
2023-10-20T03:32:44.962Z,21.04
2023-10-20T03:33:52.894Z,21.04
2023-10-20T03:34:58.180Z,20.95
2023-10-20T03:36:07.580Z,21.08
2023-10-20T03:37:15.335Z,21.02
2023-10-20T03:38:23.246Z,21.06
2023-10-20T03:39:29.517Z,21.12
2023-10-20T03:40:39.808Z,21.15
2023-10-20T03:41:45.078Z,21.16
2023-10-20T03:42:53.059Z,21.03
2023-10-20T03:43:58.061Z,21.02
2023-10-20T03:45:11.508Z,21.10
2023-10-20T03:46:17.974Z,21.21
2023-10-20T03:47:29.783Z,21.17
2023-10-20T03:48:36.803Z,21.32
2023-10-20T03:49:44.485Z,21.28
2023-10-20T03:50:50.244Z,21.28
2023-10-20T03:51:58.758Z,21.32
2023-10-20T03:53:03.816Z,21.47
2023-10-20T03:54:12.183Z,21.49
2023-10-20T03:55:17.587Z,21.47
2023-10-20T03:56:26.110Z,21.05
2023-10-20T03:57:31.277Z,21.47
2023-10-20T03:58:39.413Z,21.13
2023-10-20T03:59:45.111Z,21.42
2023-10-20T04:00:59.188Z,21.43
2023-10-20T04:02:04.241Z,21.25
2023-10-20T04:03:12.643Z,21.36
2023-10-20T04:04:18.852Z,21.30
2023-10-20T04:05:27.884Z,21.29
2023-10-20T04:06:33.984Z,21.28
2023-10-20T04:07:41.624Z,21.24
2023-10-20T04:08:46.688Z,21.20
2023-10-20T04:09:54.471Z,21.18
2023-10-20T04:10:59.827Z,21.21
2023-10-20T04:12:08.966Z,21.16
2023-10-20T04:13:14.764Z,21.09
2023-10-20T04:14:22.508Z,21.16
2023-10-20T04:15:28.562Z,21.16
2023-10-20T04:16:41.697Z,21.16
2023-10-20T04:17:53.831Z,21.13
2023-10-20T04:19:03.449Z,21.16
2023-10-20T04:20:17.371Z,21.26
2023-10-20T04:21:26.928Z,21.27
2023-10-20T04:22:31.840Z,21.01
2023-10-20T04:23:39.652Z,21.28
2023-10-20T04:24:46.441Z,21.31
2023-10-20T04:25:57.353Z,21.35
2023-10-20T04:27:06.882Z,21.36
2023-10-20T04:28:17.167Z,21.38
2023-10-20T04:29:36.231Z,21.39
2023-10-20T04:30:55.758Z,21.27
2023-10-20T04:32:18.391Z,21.40
2023-10-20T04:33:38.039Z,21.43
2023-10-20T04:34:57.610Z,21.42
2023-10-20T04:36:17.144Z,21.34
2023-10-20T04:37:36.673Z,21.32
2023-10-20T04:38:56.253Z,21.28
2023-10-20T04:40:15.824Z,21.28
2023-10-20T04:41:35.472Z,21.22
2023-10-20T04:42:58.658Z,20.93
2023-10-20T04:44:18.251Z,21.31
2023-10-20T04:45:37.826Z,21.29
2023-10-20T04:46:57.445Z,21.19
2023-10-20T04:48:22.504Z,21.17
2023-10-20T04:49:59.937Z,20.96
2023-10-20T04:51:20.030Z,20.92
2023-10-20T04:52:51.539Z,20.88
2023-10-20T04:54:05.991Z,20.74
2023-10-20T04:55:28.221Z,20.77
2023-10-20T04:56:40.969Z,20.91
2023-10-20T04:57:54.328Z,20.95
2023-10-20T04:59:07.226Z,21.11
2023-10-20T05:00:27.933Z,21.16
2023-10-20T05:01:45.094Z,20.80
2023-10-20T05:03:00.750Z,21.18
2023-10-20T05:04:16.092Z,21.21
2023-10-20T05:05:30.290Z,21.34
2023-10-20T05:06:44.510Z,21.36
2023-10-20T05:07:53.217Z,21.35
2023-10-20T05:08:58.224Z,21.23
2023-10-20T05:10:06.841Z,21.42
2023-10-20T05:11:11.765Z,21.47
2023-10-20T05:12:19.395Z,21.48
2023-10-20T05:13:24.573Z,21.47
2023-10-20T05:14:32.630Z,21.14
2023-10-20T05:15:40.638Z,21.38
2023-10-20T05:16:48.300Z,21.39
2023-10-20T05:17:54.260Z,21.30
2023-10-20T05:19:02.723Z,21.43
2023-10-20T05:20:11.953Z,21.48
2023-10-20T05:21:20.490Z,21.50
2023-10-20T05:22:25.482Z,21.58
2023-10-20T05:23:33.124Z,21.58
2023-10-20T05:24:38.114Z,21.60
2023-10-20T05:25:51.867Z,21.66
2023-10-20T05:26:56.741Z,20.99
2023-10-20T05:28:04.980Z,21.42
2023-10-20T05:29:10.054Z,21.68
2023-10-20T05:30:18.336Z,21.71
2023-10-20T05:31:26.444Z,21.72
2023-10-20T05:32:34.204Z,21.73
2023-10-20T05:33:39.264Z,21.68
2023-10-20T05:34:46.888Z,21.75
2023-10-20T05:35:54.839Z,21.78
2023-10-20T05:37:02.433Z,21.64
2023-10-20T05:38:07.856Z,21.80
2023-10-20T05:39:15.791Z,21.82
2023-10-20T05:40:20.668Z,21.69
2023-10-20T05:41:28.447Z,21.76
2023-10-20T05:42:33.766Z,21.67
2023-10-20T05:43:43.042Z,21.75
2023-10-20T05:45:02.852Z,21.72
2023-10-20T05:46:19.760Z,21.66
2023-10-20T05:47:25.595Z,21.76
2023-10-20T05:48:33.404Z,21.73
2023-10-20T05:49:38.321Z,21.76
2023-10-20T05:50:43.244Z,21.76
2023-10-20T05:51:53.690Z,21.75
2023-10-20T05:52:58.590Z,21.73
2023-10-20T05:54:07.017Z,21.71
2023-10-20T05:55:12.272Z,21.69
2023-10-20T05:56:19.980Z,21.58
2023-10-20T05:57:25.109Z,21.63
2023-10-20T05:58:34.777Z,21.57
2023-10-20T05:59:42.627Z,20.67
2023-10-20T06:01:02.253Z,21.52
2023-10-20T06:02:09.471Z,21.39
2023-10-20T06:03:17.213Z,21.48
2023-10-20T06:04:22.650Z,21.51
2023-10-20T06:05:30.521Z,21.48
2023-10-20T06:06:35.577Z,21.55
2023-10-20T06:07:45.966Z,21.59
2023-10-20T06:08:51.753Z,21.58
2023-10-20T06:09:59.382Z,21.62
2023-10-20T06:11:04.909Z,21.61
2023-10-20T06:12:13.364Z,21.58
2023-10-20T06:13:18.521Z,21.42
2023-10-20T06:14:26.236Z,21.63
2023-10-20T06:15:31.248Z,21.71
2023-10-20T06:16:38.906Z,21.73
2023-10-20T06:17:44.477Z,21.75
2023-10-20T06:18:52.281Z,21.62
2023-10-20T06:19:57.372Z,21.65
2023-10-20T06:21:04.961Z,21.66
2023-10-20T06:22:09.906Z,21.65
2023-10-20T06:23:21.101Z,21.67
2023-10-20T06:24:26.149Z,21.63
2023-10-20T06:25:37.594Z,21.64
2023-10-20T06:26:42.921Z,21.63
2023-10-20T06:27:50.885Z,21.62
2023-10-20T06:28:55.813Z,21.63
2023-10-20T06:30:07.941Z,21.51
2023-10-20T06:31:29.098Z,21.54
2023-10-20T06:32:44.104Z,21.53
2023-10-20T06:33:50.500Z,21.53
2023-10-20T06:35:02.381Z,21.47
2023-10-20T06:36:12.464Z,21.50
2023-10-20T06:37:27.948Z,21.46
2023-10-20T06:38:38.255Z,21.55
2023-10-20T06:39:46.180Z,21.49
2023-10-20T06:40:51.108Z,21.46
2023-10-20T06:41:58.829Z,21.49
2023-10-20T06:43:05.951Z,21.54
2023-10-20T06:44:13.522Z,21.57
2023-10-20T06:45:18.583Z,21.59
2023-10-20T06:46:29.069Z,21.62
2023-10-20T06:47:34.745Z,21.58
2023-10-20T06:48:42.617Z,21.62
2023-10-20T06:49:47.537Z,21.61
2023-10-20T06:50:53.697Z,21.61
2023-10-20T06:52:06.069Z,21.58
2023-10-20T06:53:11.113Z,21.55
2023-10-20T06:54:21.561Z,20.68
2023-10-20T06:55:50.922Z,21.52
2023-10-20T06:56:54.324Z,21.42
2023-10-20T06:57:59.429Z,21.46
2023-10-20T06:59:07.219Z,21.46
2023-10-20T07:00:18.897Z,21.49
2023-10-20T07:01:28.808Z,21.56
2023-10-20T07:02:33.945Z,21.53
2023-10-20T07:03:41.911Z,21.54
2023-10-20T07:04:47.055Z,21.60
2023-10-20T07:05:54.792Z,21.62
2023-10-20T07:06:59.779Z,21.56
2023-10-20T07:08:07.831Z,21.16
2023-10-20T07:09:14.131Z,21.50
2023-10-20T07:10:26.379Z,21.45
2023-10-20T07:11:31.319Z,21.50
2023-10-20T07:12:38.964Z,21.48
2023-10-20T07:13:46.252Z,21.48
2023-10-20T07:14:53.922Z,21.49
2023-10-20T07:15:59.635Z,21.44
2023-10-20T07:17:08.708Z,21.47
2023-10-20T07:18:14.475Z,21.40
2023-10-20T07:19:22.376Z,21.45
2023-10-20T07:20:27.398Z,21.36
2023-10-20T07:21:35.406Z,21.36
2023-10-20T07:22:40.306Z,21.33
2023-10-20T07:23:48.064Z,21.32
2023-10-20T07:24:53.154Z,21.32
2023-10-20T07:26:04.115Z,21.17
2023-10-20T07:27:09.017Z,21.31
2023-10-20T07:28:16.789Z,21.31
2023-10-20T07:29:21.806Z,21.27
2023-10-20T07:30:29.504Z,21.25
2023-10-20T07:31:34.559Z,21.26
2023-10-20T07:32:43.330Z,21.29
2023-10-20T07:33:48.335Z,21.22
2023-10-20T07:34:56.454Z,21.25
2023-10-20T07:36:04.771Z,21.27
2023-10-20T07:37:12.670Z,21.31
2023-10-20T07:38:19.022Z,21.31
2023-10-20T07:39:26.694Z,21.24
2023-10-20T07:40:36.626Z,21.22
2023-10-20T07:41:46.993Z,21.11
2023-10-20T07:42:51.960Z,21.25
2023-10-20T07:44:00.666Z,21.27
2023-10-20T07:45:06.407Z,21.26
2023-10-20T07:46:20.564Z,21.32
2023-10-20T07:47:25.796Z,21.35
2023-10-20T07:48:35.085Z,20.22
2023-10-20T07:49:42.174Z,21.25
2023-10-20T07:50:49.956Z,21.23
2023-10-20T07:51:55.055Z,21.29
2023-10-20T07:53:02.993Z,21.25
2023-10-20T07:54:08.084Z,21.17
2023-10-20T07:55:16.478Z,21.22
2023-10-20T07:56:21.805Z,21.25
2023-10-20T07:57:32.080Z,21.25
2023-10-20T07:58:36.974Z,21.17
2023-10-20T07:59:44.748Z,21.22
2023-10-20T08:00:49.681Z,21.26
2023-10-20T08:01:57.772Z,21.21
2023-10-20T08:03:02.863Z,21.20
2023-10-20T08:04:11.356Z,20.31
2023-10-20T08:05:16.742Z,21.25
2023-10-20T08:06:25.193Z,21.25
2023-10-20T08:07:30.614Z,21.27
2023-10-20T08:08:38.372Z,21.25
2023-10-20T08:09:43.359Z,21.26
2023-10-20T08:10:52.238Z,21.26
2023-10-20T08:11:58.947Z,21.25
2023-10-20T08:13:10.187Z,21.23
2023-10-20T08:14:15.629Z,21.23
2023-10-20T08:15:23.870Z,21.21
2023-10-20T08:16:28.894Z,21.13
2023-10-20T08:17:36.871Z,21.17
2023-10-20T08:18:41.857Z,21.11
2023-10-20T08:19:50.216Z,21.17
2023-10-20T08:21:04.181Z,21.13
2023-10-20T08:22:11.766Z,21.08
2023-10-20T08:23:16.677Z,21.08
2023-10-20T08:24:24.256Z,21.03
2023-10-20T08:25:29.523Z,20.90
2023-10-20T08:26:37.254Z,21.03
2023-10-20T08:27:42.249Z,21.01
2023-10-20T08:28:54.065Z,21.04
2023-10-20T08:29:59.792Z,21.08
2023-10-20T08:31:12.004Z,21.05
2023-10-20T08:32:17.154Z,20.98
2023-10-20T08:33:24.856Z,20.84
2023-10-20T08:34:29.737Z,20.93
2023-10-20T08:35:40.008Z,20.97
2023-10-20T08:36:44.986Z,20.90
2023-10-20T08:37:52.576Z,20.78
2023-10-20T08:38:57.647Z,20.98
2023-10-20T08:40:12.201Z,20.91
2023-10-20T08:41:18.765Z,21.00
2023-10-20T08:42:26.729Z,20.99
2023-10-20T08:43:32.288Z,20.99
2023-10-20T08:44:43.278Z,21.00
2023-10-20T08:45:48.631Z,20.98
2023-10-20T08:46:57.610Z,20.87
2023-10-20T08:48:05.121Z,20.79
2023-10-20T08:49:13.432Z,20.88
2023-10-20T08:50:21.486Z,20.94
2023-10-20T08:51:29.325Z,20.98
2023-10-20T08:52:37.252Z,20.95
2023-10-20T08:53:46.643Z,20.95
2023-10-20T08:54:51.888Z,20.97
2023-10-20T08:55:59.542Z,21.00
2023-10-20T08:57:04.797Z,21.04
2023-10-20T08:58:12.707Z,21.11
2023-10-20T08:59:17.653Z,21.14
2023-10-20T09:01:36.257Z,21.16
2023-10-20T09:02:44.951Z,21.16
2023-10-20T09:03:52.042Z,21.04
2023-10-20T09:04:59.734Z,21.22
2023-10-20T09:06:08.419Z,21.24
2023-10-20T09:07:19.348Z,21.26
2023-10-20T09:08:29.123Z,21.23
2023-10-20T09:09:36.899Z,21.36
2023-10-20T09:10:45.135Z,21.39
2023-10-20T09:11:53.692Z,21.44
2023-10-20T09:12:58.686Z,21.47
2023-10-20T09:14:06.399Z,21.45
2023-10-20T09:15:13.035Z,21.40
2023-10-20T09:16:23.523Z,21.54
2023-10-20T09:17:29.442Z,21.58
2023-10-20T09:18:34.909Z,21.62
2023-10-20T09:19:43.667Z,21.65
2023-10-20T09:20:48.649Z,21.64
2023-10-20T09:21:54.534Z,21.13
2023-10-20T09:23:02.327Z,21.61
2023-10-20T09:24:09.989Z,21.64
2023-10-20T09:25:17.747Z,21.68
2023-10-20T09:26:22.812Z,21.65
2023-10-20T09:27:30.912Z,21.56
2023-10-20T09:28:37.720Z,21.57
2023-10-20T09:29:47.208Z,21.56
2023-10-20T09:30:55.388Z,21.53
2023-10-20T09:32:07.714Z,21.47
2023-10-20T09:33:14.956Z,21.47
2023-10-20T09:34:22.864Z,21.46
2023-10-20T09:35:28.587Z,21.42
2023-10-20T09:36:37.685Z,21.47
2023-10-20T09:37:45.034Z,21.49
2023-10-20T09:38:56.778Z,21.42
2023-10-20T09:40:08.128Z,21.06
2023-10-20T09:41:17.390Z,21.47
2023-10-20T09:42:28.246Z,21.44
2023-10-20T09:43:38.043Z,20.79
2023-10-20T09:44:54.468Z,21.47
2023-10-20T09:46:16.477Z,21.45
2023-10-20T09:47:29.632Z,21.49
2023-10-20T09:48:38.918Z,21.51
2023-10-20T09:49:44.529Z,21.53
2023-10-20T09:50:53.214Z,21.54
2023-10-20T09:51:58.987Z,21.57
2023-10-20T09:53:07.086Z,21.56
2023-10-20T09:54:12.552Z,20.54
2023-10-20T09:55:21.485Z,21.19
2023-10-20T09:56:27.181Z,21.61
2023-10-20T09:57:35.238Z,21.64
2023-10-20T09:58:40.559Z,21.56
2023-10-20T09:59:48.497Z,21.50
2023-10-20T10:00:53.515Z,21.51
2023-10-20T10:02:01.981Z,21.58
2023-10-20T10:03:10.890Z,21.58
2023-10-20T10:04:18.836Z,21.57
2023-10-20T10:05:25.552Z,21.59
2023-10-20T10:06:40.466Z,21.61
2023-10-20T10:07:47.574Z,21.56
2023-10-20T10:08:59.283Z,21.58
2023-10-20T10:10:08.220Z,21.55
2023-10-20T10:11:31.513Z,21.58
2023-10-20T10:12:36.546Z,21.57
2023-10-20T10:13:47.326Z,21.60
2023-10-20T10:14:59.280Z,21.59
2023-10-20T10:16:16.436Z,21.54
2023-10-20T10:17:24.419Z,21.54
2023-10-20T10:18:37.311Z,21.54
2023-10-20T10:19:55.344Z,21.50
2023-10-20T10:21:05.790Z,21.43
2023-10-20T10:22:19.779Z,21.43
2023-10-20T10:23:30.991Z,21.39
2023-10-20T10:24:41.313Z,21.32
2023-10-20T10:25:48.754Z,21.35
2023-10-20T10:26:58.755Z,21.35
2023-10-20T10:28:14.664Z,21.30
2023-10-20T10:29:24.253Z,21.30
2023-10-20T10:30:30.079Z,21.23
2023-10-20T10:31:47.774Z,21.30
2023-10-20T10:33:01.032Z,21.28
2023-10-20T10:34:08.816Z,21.29
2023-10-20T10:35:24.212Z,21.20
2023-10-20T10:36:29.493Z,21.04
2023-10-20T10:37:38.987Z,21.09
2023-10-20T10:38:47.060Z,21.12
2023-10-20T10:39:52.692Z,21.18
2023-10-20T10:41:00.614Z,21.17
2023-10-20T10:42:07.511Z,21.23
2023-10-20T10:43:21.535Z,21.19
2023-10-20T10:44:26.571Z,21.31
2023-10-20T10:45:36.142Z,21.37
2023-10-20T10:46:42.858Z,21.47
2023-10-20T10:47:50.939Z,21.46
2023-10-20T10:48:58.151Z,21.58
2023-10-20T10:50:09.050Z,20.37
2023-10-20T10:51:14.135Z,21.66
2023-10-20T10:52:21.757Z,21.65
2023-10-20T10:53:29.145Z,21.69
2023-10-20T10:54:38.227Z,21.68
2023-10-20T10:55:44.170Z,21.70
2023-10-20T10:56:52.326Z,21.67
2023-10-20T10:57:58.672Z,21.75
2023-10-20T10:59:06.548Z,21.70
2023-10-20T11:00:17.649Z,21.76
2023-10-20T11:01:25.576Z,21.77
2023-10-20T11:02:31.143Z,21.77
2023-10-20T11:03:39.560Z,21.71
2023-10-20T11:04:45.471Z,21.72
2023-10-20T11:05:56.102Z,21.60
2023-10-20T11:07:01.383Z,21.39
2023-10-20T11:08:13.967Z,21.25
2023-10-20T11:09:21.629Z,21.15
2023-10-20T11:10:31.727Z,21.07
2023-10-20T11:11:41.631Z,20.93
2023-10-20T11:12:54.604Z,20.84
2023-10-20T11:14:00.469Z,20.67
2023-10-20T11:15:10.399Z,20.47
2023-10-20T11:16:16.931Z,20.34
2023-10-20T11:17:25.725Z,20.20
2023-10-20T11:18:31.213Z,19.96
2023-10-20T11:19:39.340Z,20.05
2023-10-20T11:20:46.193Z,20.05
2023-10-20T11:21:57.194Z,20.11
2023-10-20T11:23:02.808Z,20.10
2023-10-20T11:24:09.822Z,20.14
2023-10-20T11:25:24.472Z,20.11
2023-10-20T11:26:30.105Z,20.09
2023-10-20T11:27:48.690Z,20.15
2023-10-20T11:28:53.939Z,20.07
2023-10-20T11:30:04.291Z,20.06
2023-10-20T11:31:09.364Z,20.07
2023-10-20T11:32:20.482Z,19.67
2023-10-20T11:33:26.222Z,19.97
2023-10-20T11:34:34.073Z,19.93
2023-10-20T11:35:39.203Z,19.87
2023-10-20T11:36:46.818Z,19.82
2023-10-20T11:37:55.390Z,19.87
2023-10-20T11:39:03.067Z,19.88
2023-10-20T11:40:10.044Z,19.88
2023-10-20T11:41:17.792Z,19.94
2023-10-20T11:42:22.849Z,19.94
2023-10-20T11:43:30.504Z,20.00
2023-10-20T11:44:35.836Z,19.95
2023-10-20T11:45:43.632Z,20.11
2023-10-20T11:46:48.533Z,20.14
2023-10-20T11:47:56.677Z,20.17
2023-10-20T11:49:01.761Z,20.25
2023-10-20T11:50:10.605Z,20.35
2023-10-20T11:51:16.238Z,20.34
2023-10-20T11:52:24.798Z,20.32
2023-10-20T11:53:32.558Z,20.42
2023-10-20T11:54:40.233Z,20.43
2023-10-20T11:55:45.154Z,20.31
2023-10-20T11:56:53.347Z,20.33
2023-10-20T11:57:58.371Z,20.22
2023-10-20T11:59:06.050Z,20.25
2023-10-20T12:00:12.267Z,20.20
2023-10-20T12:01:20.959Z,20.15
2023-10-20T12:02:26.216Z,20.08
2023-10-20T12:03:34.271Z,20.09
2023-10-20T12:04:39.323Z,20.16
2023-10-20T12:05:48.454Z,20.07
2023-10-20T12:06:53.516Z,20.20
2023-10-20T12:08:03.325Z,20.20
2023-10-20T12:09:14.571Z,20.15
2023-10-20T12:10:25.698Z,20.19
2023-10-20T12:11:30.761Z,20.21
2023-10-20T12:12:38.862Z,20.29
2023-10-20T12:13:49.235Z,20.23
2023-10-20T12:14:57.277Z,20.24
2023-10-20T12:16:02.227Z,20.36
2023-10-20T12:17:09.874Z,20.34
2023-10-20T12:18:14.890Z,20.39
2023-10-20T12:19:23.556Z,20.10
2023-10-20T12:20:28.538Z,20.35
2023-10-20T12:21:36.742Z,20.40
2023-10-20T12:22:41.674Z,20.41
2023-10-20T12:23:49.418Z,20.49
2023-10-20T12:24:57.238Z,20.57
2023-10-20T12:26:05.124Z,20.53
2023-10-20T12:27:14.430Z,20.61
2023-10-20T12:28:22.955Z,20.70
2023-10-20T12:29:27.901Z,20.68
2023-10-20T12:30:35.538Z,20.66
2023-10-20T12:31:40.572Z,20.69
2023-10-20T12:32:50.361Z,20.63
2023-10-20T12:33:56.731Z,20.64
2023-10-20T12:35:04.383Z,20.63
2023-10-20T12:36:09.879Z,20.63
2023-10-20T12:37:17.525Z,20.65
2023-10-20T12:38:22.568Z,20.66
2023-10-20T12:39:30.389Z,20.65
2023-10-20T12:40:41.220Z,20.78
2023-10-20T12:41:48.875Z,20.88
2023-10-20T12:42:54.094Z,20.93
2023-10-20T12:44:01.702Z,20.95
2023-10-20T12:45:07.478Z,21.01
2023-10-20T12:46:16.240Z,20.94
2023-10-20T12:47:21.696Z,20.00
2023-10-20T12:48:29.583Z,20.96
2023-10-20T12:49:34.881Z,20.99
2023-10-20T12:50:43.320Z,21.00
2023-10-20T12:51:48.347Z,21.03
2023-10-20T12:52:56.092Z,21.01
2023-10-20T12:54:01.045Z,21.02
2023-10-20T12:55:12.380Z,21.02
2023-10-20T12:56:21.498Z,21.13
2023-10-20T12:57:29.275Z,21.15
2023-10-20T12:58:34.665Z,21.09
2023-10-20T12:59:42.295Z,21.17
2023-10-20T13:00:47.298Z,21.21
2023-10-20T13:01:55.783Z,21.28
2023-10-20T13:03:01.608Z,21.29
2023-10-20T13:04:09.798Z,21.29
2023-10-20T13:05:14.799Z,21.30
2023-10-20T13:06:22.494Z,21.27
2023-10-20T13:07:27.424Z,21.32
2023-10-20T13:08:35.155Z,21.29
2023-10-20T13:09:40.250Z,21.31
2023-10-20T13:10:49.509Z,21.22
2023-10-20T13:11:58.217Z,21.25
2023-10-20T13:13:05.951Z,21.21
2023-10-20T13:14:10.965Z,21.27
2023-10-20T13:15:21.202Z,21.31
2023-10-20T13:16:26.222Z,21.26
2023-10-20T13:17:35.361Z,20.92
2023-10-20T13:18:40.559Z,21.38
2023-10-20T13:19:48.351Z,21.30
2023-10-20T13:20:53.339Z,21.37
2023-10-20T13:22:00.976Z,21.37
2023-10-20T13:23:06.371Z,21.38
2023-10-20T13:24:14.533Z,21.33
2023-10-20T13:25:21.272Z,21.27
2023-10-20T13:26:28.987Z,21.33
2023-10-20T13:27:36.642Z,21.30
2023-10-20T13:28:44.334Z,21.36
2023-10-20T13:29:49.394Z,21.31
2023-10-20T13:31:08.977Z,21.36
2023-10-20T13:32:14.502Z,21.36
2023-10-20T13:33:22.375Z,21.31
2023-10-20T13:34:27.355Z,21.35
2023-10-20T13:35:35.257Z,21.27
2023-10-20T13:36:40.222Z,21.36
2023-10-20T13:37:45.200Z,20.75
2023-10-20T13:38:53.265Z,21.47
2023-10-20T13:39:58.428Z,21.18
2023-10-20T13:41:06.332Z,21.49
2023-10-20T13:42:11.405Z,21.51
2023-10-20T13:43:22.288Z,21.54
2023-10-20T13:44:27.781Z,20.61
2023-10-20T13:45:35.559Z,21.62
2023-10-20T13:46:41.233Z,21.67
2023-10-20T13:47:50.516Z,21.64
2023-10-20T13:48:57.502Z,21.67
2023-10-20T13:50:06.227Z,21.74
2023-10-20T13:51:11.204Z,21.70
2023-10-20T13:52:16.129Z,21.78
2023-10-20T13:53:23.888Z,20.75
2023-10-20T13:54:29.837Z,20.80
2023-10-20T13:55:37.658Z,21.87
2023-10-20T13:56:42.688Z,21.88
2023-10-20T13:57:50.598Z,21.89
2023-10-20T13:58:58.190Z,21.86
2023-10-20T14:00:08.599Z,21.75
2023-10-20T14:01:13.715Z,21.77
2023-10-20T14:02:22.304Z,21.86
2023-10-20T14:03:28.114Z,21.80
2023-10-20T14:04:35.914Z,21.88
2023-10-20T14:05:40.992Z,21.91
2023-10-20T14:06:48.698Z,21.82
2023-10-20T14:07:53.827Z,22.01
2023-10-20T14:09:01.575Z,22.04
2023-10-20T14:10:07.939Z,21.94
2023-10-20T14:11:16.686Z,22.04
2023-10-20T14:12:21.830Z,22.07
2023-10-20T14:13:30.075Z,22.10
2023-10-20T14:14:38.132Z,22.11
2023-10-20T14:15:48.426Z,21.88
2023-10-20T14:16:55.952Z,22.24
2023-10-20T14:18:03.862Z,22.26
2023-10-20T14:19:09.112Z,22.24
2023-10-20T14:20:17.151Z,22.02
2023-10-20T14:21:22.172Z,22.39
2023-10-20T14:22:31.514Z,22.03
2023-10-20T14:23:40.743Z,22.37
2023-10-20T14:24:48.417Z,22.38
2023-10-20T14:25:58.483Z,22.39
2023-10-20T14:27:06.198Z,22.40
2023-10-20T14:28:11.155Z,22.40
2023-10-20T14:29:19.915Z,22.40
2023-10-20T14:30:27.542Z,22.40
2023-10-20T14:31:35.544Z,22.35
2023-10-20T14:32:40.692Z,22.30
2023-10-20T14:33:48.428Z,22.27
2023-10-20T14:34:53.771Z,22.25
2023-10-20T14:36:02.138Z,21.88
2023-10-20T14:37:09.507Z,22.20
2023-10-20T14:38:17.128Z,22.20